Time;durP1;ratioP1;P1;durP2;ratioP2;P2;SDS_P1;SDS_P2;PMS_P1;PMS_P2;Temp;Humidity;BMP_temperature;BMP_pressure;BME280_temperature;BME280_humidity;BME280_pressure;Samples;Min_cycle;Max_cycle;Signal;HPM_P1;HPM_P2
2022/05/22 00:01:41;;;;;;;12.23;3.67;;;;;;;12.25;100.00;101888.00;4990684;28;20163;-62
2022/05/22 00:04:10;;;;;;;9.80;3.72;;;;;;;12.23;100.00;101881.97;4991337;28;20058;-61
2022/05/22 00:06:38;;;;;;;9.38;3.30;;;;;;;12.19;100.00;101891.00;4995072;28;20125;-60
2022/05/22 00:09:06;;;;;;;10.07;3.00;;;;;;;12.18;100.00;101895.41;4995568;28;20069;-60
2022/05/22 00:11:34;;;;;;;10.68;3.50;;;;;;;12.00;100.00;101888.53;4995743;28;20541;-60
2022/05/22 00:14:02;;;;;;;9.48;3.25;;;;;;;12.03;100.00;101884.88;4995604;28;20480;-61
2022/05/22 00:16:40;;;;;;;8.25;3.67;;;;;;;11.99;100.00;101879.75;4994410;28;20058;-60
2022/05/22 00:19:12;;;;;;;10.27;4.00;;;;;;;11.97;100.00;101863.19;4995523;28;20054;-61
2022/05/22 00:21:41;;;;;;;7.53;3.23;;;;;;;11.92;100.00;101859.06;4995709;28;20506;-61
2022/05/22 00:24:11;;;;;;;7.00;3.17;;;;;;;11.89;100.00;101860.06;4994347;28;20038;-61
2022/05/22 00:26:40;;;;;;;10.05;3.58;;;;;;;11.81;100.00;101851.75;4995584;28;20046;-60
2022/05/22 00:29:08;;;;;;;10.30;3.83;;;;;;;11.69;100.00;101852.41;4992886;28;20120;-60
2022/05/22 00:31:38;;;;;;;10.75;4.30;;;;;;;11.67;100.00;101857.75;4992376;28;20116;-61
2022/05/22 00:34:06;;;;;;;9.50;3.65;;;;;;;11.76;100.00;101854.59;4995364;28;20046;-60
2022/05/22 00:36:34;;;;;;;9.60;4.05;;;;;;;11.74;100.00;101855.63;4995157;28;20125;-61
2022/05/22 00:39:03;;;;;;;8.30;3.95;;;;;;;11.75;100.00;101849.41;4995140;28;20065;-61
2022/05/22 00:41:32;;;;;;;9.90;4.28;;;;;;;11.59;100.00;101852.03;4995138;28;20054;-62
2022/05/22 00:44:02;;;;;;;10.00;3.70;;;;;;;11.59;100.00;101852.03;4994977;28;20056;-59
2022/05/22 00:46:32;;;;;;;12.30;3.60;;;;;;;11.60;100.00;101854.59;4991440;28;20050;-61
2022/05/22 00:49:05;;;;;;;10.63;4.00;;;;;;;11.60;100.00;101848.47;4992722;28;20077;-60
2022/05/22 00:51:38;;;;;;;10.68;4.35;;;;;;;11.56;100.00;101846.91;4994904;28;20061;-59
2022/05/22 00:54:11;;;;;;;10.38;4.07;;;;;;;11.48;100.00;101847.34;4992701;28;20050;-60
2022/05/22 00:56:44;;;;;;;12.98;4.97;;;;;;;11.47;100.00;101848.28;4990748;28;20050;-61
2022/05/22 00:59:17;;;;;;;9.18;3.80;;;;;;;11.44;100.00;101844.03;4994615;28;20057;-61
2022/05/22 01:01:47;;;;;;;8.60;3.45;;;;;;;11.41;100.00;101840.69;4994738;28;20061;-62
2022/05/22 01:04:22;;;;;;;9.60;3.80;;;;;;;11.46;100.00;101839.50;4995192;28;20513;-61
2022/05/22 01:06:52;;;;;;;11.30;4.00;;;;;;;11.42;100.00;101839.75;4994658;28;20413;-60
2022/05/22 01:09:20;;;;;;;9.07;3.72;;;;;;;11.38;100.00;101833.78;4994629;28;20137;-61
2022/05/22 01:11:50;;;;;;;11.20;3.80;;;;;;;11.33;100.00;101827.94;4994654;28;20053;-60
2022/05/22 01:14:22;;;;;;;10.05;4.25;;;;;;;11.41;100.00;101831.03;4991578;28;20047;-59
2022/05/22 01:16:51;;;;;;;10.43;4.28;;;;;;;11.38;100.00;101828.53;4991621;28;20444;-60
2022/05/22 01:19:23;;;;;;;8.93;3.88;;;;;;;11.26;100.00;101837.06;4992431;28;20059;-61
2022/05/22 01:21:55;;;;;;;10.95;4.45;;;;;;;11.24;100.00;101836.31;4994322;28;20049;-61
2022/05/22 01:24:23;;;;;;;9.17;4.23;;;;;;;11.24;100.00;101837.16;4993151;28;20065;-62
2022/05/22 01:26:53;;;;;;;9.98;4.07;;;;;;;11.21;100.00;101839.09;4990467;28;20081;-62
2022/05/22 01:29:22;;;;;;;9.50;4.45;;;;;;;11.23;100.00;101838.06;4992932;28;20620;-61
2022/05/22 01:31:50;;;;;;;14.18;5.40;;;;;;;11.18;100.00;101836.63;4994211;28;20137;-61
2022/05/22 01:34:18;;;;;;;10.40;5.05;;;;;;;11.18;100.00;101834.84;4994032;28;20065;-61
2022/05/22 01:36:47;;;;;;;8.60;4.68;;;;;;;11.06;100.00;101827.59;4993966;28;20049;-61
2022/05/22 01:39:16;;;;;;;11.15;4.72;;;;;;;11.05;100.00;101815.34;4992604;28;20517;-60
2022/05/22 01:41:44;;;;;;;8.43;4.53;;;;;;;10.97;100.00;101819.22;4989874;28;20540;-62
2022/05/22 01:44:12;;;;;;;10.45;4.68;;;;;;;10.93;100.00;101825.56;4991066;28;20077;-62
2022/05/22 01:46:41;;;;;;;9.85;4.97;;;;;;;10.89;100.00;101834.53;4993931;28;20049;-60
2022/05/22 01:49:09;;;;;;;8.45;4.93;;;;;;;10.95;100.00;101828.97;4992699;28;20050;-61
2022/05/22 01:51:39;;;;;;;9.00;4.70;;;;;;;10.85;100.00;101835.63;4993738;28;20055;-59
2022/05/22 01:54:08;;;;;;;9.70;4.63;;;;;;;10.78;100.00;101832.50;4992580;28;20343;-60
2022/05/22 01:56:38;;;;;;;9.48;4.90;;;;;;;10.79;100.00;101830.69;4993457;28;20559;-60
2022/05/22 01:59:06;;;;;;;11.05;5.00;;;;;;;10.74;100.00;101830.91;4993523;28;20046;-62
2022/05/22 02:01:35;;;;;;;9.75;4.57;;;;;;;10.59;100.00;101822.03;4993676;28;20494;-61
2022/05/22 02:04:03;;;;;;;9.23;4.63;;;;;;;10.57;100.00;101813.34;4992207;28;20448;-60
2022/05/22 02:06:32;;;;;;;9.43;4.75;;;;;;;10.48;100.00;101819.94;4991749;28;20126;-60
2022/05/22 02:08:59;;;;;;;11.18;5.10;;;;;;;10.49;100.00;101821.59;4989892;28;20061;-60
2022/05/22 02:11:27;;;;;;;12.82;4.65;;;;;;;10.42;100.00;101829.91;4992650;28;20121;-61
2022/05/22 02:13:56;;;;;;;10.70;5.18;;;;;;;10.46;100.00;101831.44;4993204;28;20088;-60
2022/05/22 02:16:25;;;;;;;10.70;5.30;;;;;;;10.49;100.00;101823.41;4988381;28;20090;-60
2022/05/22 02:18:53;;;;;;;10.73;4.53;;;;;;;10.53;100.00;101811.78;4990735;28;20038;-61
2022/05/22 02:21:21;;;;;;;9.82;4.68;;;;;;;10.48;100.00;101805.91;4992319;28;20054;-60
2022/05/22 02:23:49;;;;;;;9.07;4.50;;;;;;;10.39;100.00;101795.84;4991215;28;20678;-60
2022/05/22 02:26:17;;;;;;;9.25;4.50;;;;;;;10.37;100.00;101802.97;4988618;28;20450;-60
2022/05/22 02:28:45;;;;;;;7.95;4.10;;;;;;;10.35;100.00;101794.28;4992943;28;20050;-60
2022/05/22 02:31:14;;;;;;;10.77;4.45;;;;;;;10.42;100.00;101800.97;4992951;28;20366;-60
2022/05/22 02:33:42;;;;;;;12.32;4.97;;;;;;;10.38;100.00;101788.91;4993020;28;20050;-61
2022/05/22 02:36:13;;;;;;;11.45;4.65;;;;;;;10.41;100.00;101791.38;4993082;28;20043;-61
2022/05/22 02:38:42;;;;;;;8.52;4.55;;;;;;;10.46;100.00;101787.56;4993105;28;20560;-60
2022/05/22 02:41:11;;;;;;;10.90;4.88;;;;;;;10.30;100.00;101782.19;4993002;28;20104;-60
2022/05/22 02:43:40;;;;;;;7.85;4.00;;;;;;;10.25;100.00;101786.84;4993007;28;20096;-61
2022/05/22 02:46:11;;;;;;;9.68;4.30;;;;;;;10.32;100.00;101782.09;4992614;28;20179;-60
2022/05/22 02:48:41;;;;;;;8.57;4.50;;;;;;;10.31;100.00;101783.91;4992841;28;20046;-60
2022/05/22 02:51:11;;;;;;;7.72;4.00;;;;;;;10.32;100.00;101776.84;4992671;28;20521;-61
2022/05/22 02:53:39;;;;;;;10.50;4.45;;;;;;;10.23;100.00;101780.78;4991257;28;20053;-60
2022/05/22 02:56:09;;;;;;;9.07;4.53;;;;;;;10.20;100.00;101770.44;4992301;28;20549;-60
2022/05/22 02:58:37;;;;;;;10.98;4.55;;;;;;;10.16;100.00;101768.88;4989385;28;20054;-60
2022/05/22 03:01:05;;;;;;;7.50;4.45;;;;;;;10.09;100.00;101772.72;4988189;28;20091;-60
2022/05/22 03:03:34;;;;;;;8.88;4.38;;;;;;;10.09;100.00;101768.31;4991690;28;20046;-60
2022/05/22 03:08:49;;;;;;;8.13;4.30;;;;;;;10.01;100.00;101767.84;4992716;28;20116;-60
2022/05/22 03:11:17;;;;;;;8.18;4.38;;;;;;;10.03;100.00;101768.59;4992508;28;20053;-59
2022/05/22 03:13:46;;;;;;;11.15;4.78;;;;;;;10.07;100.00;101767.53;4992374;28;20046;-60
2022/05/22 03:16:15;;;;;;;10.20;4.35;;;;;;;10.07;100.00;101766.69;4990878;28;20046;-60
2022/05/22 03:18:43;;;;;;;9.52;5.03;;;;;;;10.00;100.00;101763.50;4989027;28;20046;-60
2022/05/22 03:21:13;;;;;;;9.52;4.40;;;;;;;10.01;100.00;101770.47;4989057;28;20042;-60
2022/05/22 03:23:42;;;;;;;7.30;4.22;;;;;;;9.94;100.00;101775.16;4992437;28;20590;-61
2022/05/22 03:26:10;;;;;;;9.25;4.97;;;;;;;9.94;100.00;101769.06;4992320;28;20046;-62
2022/05/22 03:28:39;;;;;;;12.25;4.68;;;;;;;9.92;100.00;101758.59;4992308;28;20454;-60
2022/05/22 03:31:07;;;;;;;9.48;5.10;;;;;;;9.83;100.00;101759.06;4992109;28;20112;-61
2022/05/22 03:33:36;;;;;;;10.32;4.80;;;;;;;9.90;100.00;101755.22;4992316;28;20054;-59
2022/05/22 03:36:05;;;;;;;11.45;4.60;;;;;;;9.91;100.00;101759.56;4992282;28;20545;-59
2022/05/22 03:38:34;;;;;;;10.30;4.85;;;;;;;9.87;100.00;101758.00;4992536;28;20429;-60
2022/05/22 03:41:02;;;;;;;9.23;4.97;;;;;;;9.85;100.00;101754.56;4991316;28;20418;-59
2022/05/22 03:43:30;;;;;;;10.73;4.50;;;;;;;9.88;100.00;101756.22;4995953;28;20409;-59
2022/05/22 03:45:58;;;;;;;10.32;5.03;;;;;;;9.88;100.00;101764.09;4995913;28;20062;-59
2022/05/22 03:48:26;;;;;;;9.23;4.65;;;;;;;9.80;100.00;101761.81;4996228;28;20042;-60
2022/05/22 03:50:54;;;;;;;10.07;4.70;;;;;;;9.85;100.00;101770.34;4996192;28;20496;-61
2022/05/22 03:53:23;;;;;;;8.88;4.50;;;;;;;9.86;100.00;101760.66;4995987;28;20121;-59
2022/05/22 03:55:52;;;;;;;9.43;4.40;;;;;;;9.78;100.00;101753.19;4991705;28;20081;-60
2022/05/22 03:58:20;;;;;;;14.25;5.50;;;;;;;9.77;100.00;101757.56;4992005;28;20061;-61
2022/05/22 04:00:48;;;;;;;13.45;5.13;;;;;;;9.70;100.00;101763.19;4994937;28;20074;-61
2022/05/22 04:03:16;;;;;;;11.77;5.53;;;;;;;9.70;100.00;101752.69;4992909;28;20050;-61
2022/05/22 04:05:45;;;;;;;11.10;5.85;;;;;;;9.74;100.00;101752.47;4994426;28;20050;-61
2022/05/22 04:08:12;;;;;;;10.52;4.82;;;;;;;9.74;100.00;101749.00;4995714;28;20788;-60
2022/05/22 04:10:40;;;;;;;13.95;6.05;;;;;;;9.67;100.00;101760.69;4995878;28;20108;-61
2022/05/22 04:13:10;;;;;;;9.07;5.00;;;;;;;9.70;100.00;101757.94;4995472;28;20061;-59
2022/05/22 04:15:38;;;;;;;11.85;6.20;;;;;;;9.74;100.00;101751.63;4995326;28;20074;-60
2022/05/22 04:18:06;;;;;;;9.88;5.93;;;;;;;9.77;100.00;101757.56;4995266;28;20104;-61
2022/05/22 04:20:34;;;;;;;10.63;5.88;;;;;;;9.76;100.00;101750.63;4995535;28;20711;-60
2022/05/22 04:26:03;;;;;;;10.10;5.90;;;;;;;9.74;100.00;101744.56;4952264;29;20047;-61
2022/05/22 04:28:32;;;;;;;12.25;6.32;;;;;;;9.78;100.00;101750.53;4954386;29;20138;-62
2022/05/22 04:31:01;;;;;;;12.73;6.03;;;;;;;9.79;100.00;101744.38;4972711;28;20381;-61
2022/05/22 04:33:29;;;;;;;14.30;5.95;;;;;;;9.81;100.00;101745.13;4995350;28;20047;-60
2022/05/22 04:35:58;;;;;;;14.88;6.45;;;;;;;9.84;100.00;101733.63;4994273;28;20371;-61
2022/05/22 04:38:26;;;;;;;11.60;6.50;;;;;;;9.88;100.00;101743.91;4992525;28;20054;-60
2022/05/22 04:40:56;;;;;;;15.93;6.68;;;;;;;9.93;100.00;101747.19;4993470;28;20053;-61
2022/05/22 04:43:25;;;;;;;11.65;6.35;;;;;;;9.92;100.00;101742.00;4995208;28;20078;-60
2022/05/22 04:45:55;;;;;;;10.25;5.25;;;;;;;10.02;100.00;101740.66;4990909;28;20046;-60
2022/05/22 04:48:25;;;;;;;10.75;5.95;;;;;;;9.97;100.00;101746.09;4991742;28;20062;-61
2022/05/22 04:50:55;;;;;;;11.18;6.20;;;;;;;10.08;100.00;101750.00;4993807;28;20401;-60
2022/05/22 04:53:25;;;;;;;12.35;6.07;;;;;;;10.12;100.00;101747.13;4995075;28;20104;-59
2022/05/22 04:55:53;;;;;;;10.70;5.72;;;;;;;10.11;100.00;101747.22;4993479;28;20046;-60
2022/05/22 04:58:22;;;;;;;10.27;6.15;;;;;;;10.24;100.00;101744.81;4991167;28;20049;-59
2022/05/22 05:00:50;;;;;;;13.10;6.53;;;;;;;10.26;100.00;101742.97;4989754;28;20893;-60
2022/05/22 05:03:19;;;;;;;12.30;6.43;;;;;;;10.23;100.00;101751.03;4994927;28;20049;-61
2022/05/22 05:05:57;;;;;;;15.73;7.28;;;;;;;10.28;100.00;101739.34;4994567;28;20494;-60
2022/05/22 05:08:26;;;;;;;18.48;8.15;;;;;;;10.36;100.00;101743.41;4994715;28;20073;-60
2022/05/22 05:10:54;;;;;;;15.82;8.02;;;;;;;10.40;100.00;101745.81;4994065;28;20561;-60
2022/05/22 05:13:23;;;;;;;16.73;7.95;;;;;;;10.52;100.00;101752.22;4990545;28;20060;-60
2022/05/22 05:16:03;;;;;;;14.52;7.45;;;;;;;10.59;100.00;101748.38;4990564;28;20133;-62
2022/05/22 05:18:33;;;;;;;17.45;8.18;;;;;;;10.70;100.00;101749.59;4993970;28;20058;-60
2022/05/22 05:21:05;;;;;;;15.52;7.22;;;;;;;10.70;100.00;101742.53;4991411;28;20055;-60
2022/05/22 05:23:33;;;;;;;15.10;7.10;;;;;;;10.78;100.00;101739.53;4990952;28;20046;-60
2022/05/22 05:26:01;;;;;;;13.88;6.40;;;;;;;10.84;100.00;101736.59;4993190;28;20521;-60
2022/05/22 05:28:29;;;;;;;13.30;7.13;;;;;;;10.93;100.00;101737.88;4994058;28;20065;-61
2022/05/22 05:30:58;;;;;;;11.00;6.10;;;;;;;10.99;100.00;101732.31;4993695;28;20081;-62
2022/05/22 05:33:26;;;;;;;13.93;6.20;;;;;;;11.06;100.00;101738.94;4994126;28;20051;-61
2022/05/22 05:35:56;;;;;;;16.15;6.38;;;;;;;11.18;100.00;101742.72;4993849;28;20057;-61
2022/05/22 05:38:23;;;;;;;10.77;5.38;;;;;;;11.31;100.00;101742.88;4989022;28;20049;-61
2022/05/22 05:41:11;;;;;;;11.32;5.80;;;;;;;11.43;100.00;101736.94;4991337;28;20108;-61
2022/05/22 05:43:39;;;;;;;12.07;5.57;;;;;;;11.54;100.00;101748.69;4993621;28;20124;-60
2022/05/22 05:46:10;;;;;;;13.27;5.72;;;;;;;11.61;100.00;101745.63;4993689;28;20054;-61
2022/05/22 05:48:42;;;;;;;7.97;4.97;;;;;;;11.72;100.00;101737.13;4990154;28;20046;-61
2022/05/22 05:51:13;;;;;;;10.75;5.78;;;;;;;11.86;100.00;101738.13;4990655;28;20101;-61
2022/05/22 05:53:41;;;;;;;12.63;5.15;;;;;;;11.96;100.00;101734.94;4993716;28;20053;-61
2022/05/22 05:56:09;;;;;;;9.93;5.55;;;;;;;12.07;100.00;101736.13;4993591;28;20042;-61
2022/05/22 05:58:52;;;;;;;10.55;5.65;;;;;;;12.25;100.00;101734.19;4993375;28;20460;-61
2022/05/22 06:01:21;;;;;;;13.18;5.30;;;;;;;12.34;100.00;101733.66;4993011;28;20081;-61
2022/05/22 06:03:49;;;;;;;12.00;5.25;;;;;;;12.45;100.00;101736.53;4993343;28;20054;-61
2022/05/22 06:06:19;;;;;;;8.85;5.32;;;;;;;12.55;100.00;101742.09;4991564;28;20058;-61
2022/05/22 06:08:48;;;;;;;13.38;4.85;;;;;;;12.62;100.00;101740.78;4990321;28;20490;-61
2022/05/22 06:11:16;;;;;;;9.07;4.65;;;;;;;12.76;100.00;101741.75;4992515;28;20412;-61
2022/05/22 06:13:44;;;;;;;10.82;5.15;;;;;;;12.89;100.00;101739.22;4993228;28;20050;-61
2022/05/22 06:16:12;;;;;;;8.75;5.05;;;;;;;13.08;100.00;101736.31;4991577;28;20064;-61
2022/05/22 06:18:42;;;;;;;10.25;5.10;;;;;;;13.20;100.00;101738.19;4990910;28;20058;-62
2022/05/22 06:21:12;;;;;;;10.85;5.10;;;;;;;13.32;100.00;101748.00;4989639;28;20480;-61
2022/05/22 06:23:41;;;;;;;9.73;5.35;;;;;;;13.45;100.00;101749.91;4991922;28;20058;-61
2022/05/22 06:26:11;;;;;;;11.55;4.97;;;;;;;13.60;100.00;101737.50;4991603;28;20054;-61
2022/05/22 06:28:39;;;;;;;11.65;4.22;;;;;;;13.77;96.50;101741.69;4993045;28;20046;-60
2022/05/22 06:31:08;;;;;;;12.15;4.95;;;;;;;13.93;100.00;101741.56;4991920;28;20134;-60
2022/05/22 06:33:36;;;;;;;9.75;4.57;;;;;;;14.11;98.55;101739.50;4990491;28;20056;-59
2022/05/22 06:36:10;;;;;;;10.05;4.28;;;;;;;14.26;98.77;101748.22;4991950;28;20054;-59
2022/05/22 06:41:41;;;;;;;11.45;5.18;;;;;;;14.61;93.76;101742.38;4949573;29;20059;-60
2022/05/22 06:44:09;;;;;;;10.15;4.72;;;;;;;14.82;90.32;101742.72;4951756;28;20182;-61
2022/05/22 06:46:37;;;;;;;10.35;4.20;;;;;;;14.89;91.99;101741.34;4969520;28;20506;-61
2022/05/22 06:49:05;;;;;;;12.05;4.68;;;;;;;15.03;91.38;101748.34;4990359;28;20042;-61
2022/05/22 06:51:33;;;;;;;10.30;4.05;;;;;;;15.11;88.46;101743.34;4992617;28;20090;-61
2022/05/22 06:54:01;;;;;;;11.40;4.57;;;;;;;15.30;89.70;101747.38;4989999;28;20177;-61
2022/05/22 06:56:29;;;;;;;9.90;4.47;;;;;;;15.44;88.33;101743.72;4991221;28;20057;-61
2022/05/22 06:58:58;;;;;;;9.32;4.72;;;;;;;15.60;89.35;101746.97;4989354;28;20077;-61
2022/05/22 07:01:27;;;;;;;11.35;4.70;;;;;;;15.83;87.61;101745.31;4988971;28;20054;-61
2022/05/22 07:03:55;;;;;;;13.57;5.22;;;;;;;15.99;87.26;101750.34;4992092;28;20046;-62
2022/05/22 07:06:23;;;;;;;13.00;5.28;;;;;;;16.09;85.73;101752.31;4989337;28;20074;-61
2022/05/22 07:08:51;;;;;;;11.80;4.93;;;;;;;16.17;84.81;101753.44;4990589;28;20422;-60
2022/05/22 07:14:06;;;;;;;10.65;4.75;;;;;;;16.64;84.19;101749.97;4991361;28;20050;-62
2022/05/22 07:16:35;;;;;;;12.48;4.75;;;;;;;16.85;82.08;101744.78;4989710;28;20038;-62
2022/05/22 07:19:04;;;;;;;10.77;4.32;;;;;;;17.01;80.88;101737.34;4989935;28;20074;-61
2022/05/22 07:21:32;;;;;;;9.65;4.25;;;;;;;17.22;79.89;101741.97;4992474;28;20065;-62
2022/05/22 07:24:00;;;;;;;14.00;4.43;;;;;;;17.31;78.64;101738.53;4992470;28;20437;-61
2022/05/22 07:26:28;;;;;;;11.60;3.80;;;;;;;17.43;74.47;101738.56;4992246;28;20050;-63
2022/05/22 07:28:58;;;;;;;9.95;4.03;;;;;;;17.58;73.88;101732.00;4988949;28;20070;-63
2022/05/22 07:31:28;;;;;;;8.77;3.75;;;;;;;17.64;73.04;101734.16;4990324;28;20446;-60
2022/05/22 07:33:58;;;;;;;11.68;4.13;;;;;;;17.91;72.17;101724.88;4992327;28;20065;-61
2022/05/22 07:36:27;;;;;;;9.32;3.45;;;;;;;18.07;73.23;101727.97;4992274;28;20042;-60
2022/05/22 07:38:55;;;;;;;8.88;3.70;;;;;;;18.18;71.12;101728.91;4991977;28;20050;-61
2022/05/22 07:41:23;;;;;;;7.43;3.22;;;;;;;18.39;69.54;101726.25;4992452;28;20088;-63
2022/05/22 07:43:51;;;;;;;7.68;2.90;;;;;;;18.32;67.76;101736.56;4992880;28;20046;-63
2022/05/22 07:46:19;;;;;;;9.82;3.40;;;;;;;18.43;67.82;101733.00;4992015;28;20050;-61
2022/05/22 07:48:48;;;;;;;9.80;2.90;;;;;;;18.68;67.68;101734.44;4990272;28;20050;-60
2022/05/22 07:51:17;;;;;;;8.85;2.90;;;;;;;18.91;67.59;101735.16;4988640;28;20042;-61
2022/05/22 07:53:45;;;;;;;8.20;3.08;;;;;;;18.94;64.99;101736.72;4991584;28;20130;-62
2022/05/22 07:56:14;;;;;;;9.63;2.30;;;;;;;19.01;62.29;101737.03;4988239;28;20058;-62
2022/05/22 07:58:42;;;;;;;7.28;2.45;;;;;;;19.13;64.31;101730.63;4989266;28;20066;-64
2022/05/22 08:01:10;;;;;;;8.65;3.13;;;;;;;19.22;62.39;101742.28;4992427;28;20042;-61
2022/05/22 08:03:39;;;;;;;8.65;2.53;;;;;;;19.27;60.23;101737.38;4992503;28;20335;-63
2022/05/22 08:06:09;;;;;;;9.63;1.88;;;;;;;19.31;61.88;101729.97;4991811;28;20050;-62
2022/05/22 08:08:37;;;;;;;7.00;2.80;;;;;;;19.57;60.05;101730.31;4991858;28;20153;-62
2022/05/22 08:11:11;;;;;;;7.88;2.72;;;;;;;19.87;61.22;101724.06;4991675;28;20371;-63
2022/05/22 08:13:40;;;;;;;13.35;3.40;;;;;;;19.95;59.84;101726.03;4992212;28;20516;-61
2022/05/22 08:16:08;;;;;;;9.18;2.50;;;;;;;20.26;57.63;101717.88;4992070;28;20047;-61
2022/05/22 08:18:36;;;;;;;10.40;2.83;;;;;;;20.21;58.61;101714.78;4991596;28;20043;-62
2022/05/22 08:21:06;;;;;;;9.88;3.30;;;;;;;19.89;56.98;101700.75;4988079;28;20089;-61
2022/05/22 08:23:36;;;;;;;6.88;2.25;;;;;;;20.07;58.01;101692.88;4990518;28;20497;-61
2022/05/22 08:26:04;;;;;;;7.78;2.25;;;;;;;20.46;57.44;101693.78;4992757;28;20058;-59
2022/05/22 08:28:32;;;;;;;6.63;1.83;;;;;;;20.68;57.89;101692.59;4992374;28;20058;-61
2022/05/22 08:31:00;;;;;;;8.75;2.05;;;;;;;20.89;56.67;101681.72;4993748;28;20053;-60
2022/05/22 08:33:28;;;;;;;7.10;2.13;;;;;;;20.93;53.52;101688.47;4994921;28;20123;-63
2022/05/22 08:35:56;;;;;;;7.82;2.10;;;;;;;20.97;53.84;101684.50;4995100;28;20393;-63
2022/05/22 08:38:24;;;;;;;6.30;1.80;;;;;;;21.19;53.77;101677.06;4994728;28;20520;-63
2022/05/22 08:40:59;;;;;;;9.43;2.38;;;;;;;21.48;51.93;101670.69;4995020;28;20042;-63
2022/05/22 08:43:34;;;;;;;7.78;1.77;;;;;;;21.70;51.32;101664.91;4994912;28;20050;-63
2022/05/22 08:46:11;;;;;;;7.72;1.73;;;;;;;22.02;52.50;101662.63;4991229;28;20042;-61
2022/05/22 08:48:45;;;;;;;7.28;1.50;;;;;;;22.38;49.95;101668.78;4993630;28;20042;-61
2022/05/22 08:51:17;;;;;;;5.72;1.60;;;;;;;22.11;45.31;101661.72;4995229;28;20049;-64
2022/05/22 08:53:48;;;;;;;;;;;;;;;22.18;46.31;101654.72;4995912;28;20050;-65
2022/05/22 08:59:11;;;;;;;7.03;2.00;;;;;;;21.80;47.28;101654.13;4993840;28;20035;-64
2022/05/22 09:01:46;;;;;;;7.55;2.58;;;;;;;21.70;46.98;101656.03;4995542;28;20057;-65
2022/05/22 09:04:36;;;;;;;9.43;2.08;;;;;;;21.64;47.82;101654.81;4994880;28;20050;-63
2022/05/22 09:07:13;;;;;;;7.13;1.73;;;;;;;21.82;46.98;101645.94;4990925;28;20375;-62
2022/05/22 09:09:44;;;;;;;7.05;1.55;;;;;;;22.26;46.71;101635.19;4993096;28;20041;-61
2022/05/22 09:12:37;;;;;;;6.90;1.60;;;;;;;22.13;43.98;101635.63;4991704;28;20523;-59
2022/05/22 09:15:09;;;;;;;;;;;;;;;21.88;45.09;101623.88;4993449;28;20050;-63
2022/05/22 09:17:44;;;;;;;7.60;2.08;;;;;;;21.93;45.72;101622.41;4991487;28;19933;-63
2022/05/22 09:20:18;;;;;;;6.57;1.85;;;;;;;22.29;45.08;101621.47;4992051;28;20049;-64
2022/05/22 09:23:00;;;;;;;8.98;1.70;;;;;;;22.26;45.31;101606.59;4992015;28;20501;-63
2022/05/22 09:25:46;;;;;;;5.13;1.50;;;;;;;22.62;44.98;101613.66;4990192;28;20137;-63
2022/05/22 09:28:24;;;;;;;10.38;2.38;;;;;;;22.82;43.60;101594.63;4993763;28;20065;-64
2022/05/22 09:31:04;;;;;;;6.68;1.85;;;;;;;23.09;45.01;101599.72;4993932;28;20047;-63
2022/05/22 09:33:40;;;;;;;4.90;1.92;;;;;;;23.26;44.01;101597.94;4993171;28;20518;-63
2022/05/22 09:36:22;;;;;;;8.65;2.03;;;;;;;23.39;43.71;101593.94;4992258;28;20080;-63
2022/05/22 09:39:25;;;;;;;6.05;1.70;;;;;;;23.30;41.88;101593.06;4994041;28;20088;-63
2022/05/22 09:42:00;;;;;;;;;;;;;;;23.59;44.05;101586.41;4989342;28;20050;-61
2022/05/22 09:44:55;;;;;;;6.57;2.20;;;;;;;23.55;41.92;101590.44;4989474;28;19925;-62
2022/05/22 09:47:50;;;;;;;6.35;1.95;;;;;;;23.80;42.07;101584.03;4994315;28;20189;-63
2022/05/22 09:50:48;;;;;;;7.40;2.30;;;;;;;24.02;41.85;101589.72;4993851;28;20430;-65
2022/05/22 09:53:27;;;;;;;7.40;2.13;;;;;;;24.17;43.64;101586.34;4993548;28;20050;-64
2022/05/22 09:56:03;;;;;;;8.43;2.30;;;;;;;24.35;40.35;101594.19;4993733;28;20042;-62
2022/05/22 09:58:55;;;;;;;8.45;2.20;;;;;;;24.10;39.47;101594.25;4993559;28;20046;-61
2022/05/22 10:01:32;;;;;;;5.95;1.73;;;;;;;24.36;39.99;101593.19;4992091;28;20417;-62
2022/05/22 10:04:15;;;;;;;8.57;2.28;;;;;;;24.50;41.41;101583.53;4993383;28;20418;-61
2022/05/22 10:06:52;;;;;;;5.97;1.88;;;;;;;24.62;42.53;101583.03;4993799;28;20433;-63
2022/05/22 10:09:34;;;;;;;6.22;1.95;;;;;;;24.76;41.21;101584.13;4989276;28;20053;-63
2022/05/22 10:12:18;;;;;;;7.70;1.88;;;;;;;24.76;40.18;101589.53;4989275;28;20081;-63
2022/05/22 10:15:06;;;;;;;7.40;1.92;;;;;;;24.93;40.14;101582.19;4993367;28;20084;-64
2022/05/22 10:17:55;;;;;;;8.63;2.00;;;;;;;24.97;40.21;101585.38;4993745;28;20058;-61
2022/05/22 10:20:37;;;;;;;7.40;1.80;;;;;;;24.35;40.79;101580.75;4988794;28;20049;-61
2022/05/22 10:23:16;;;;;;;9.33;1.83;;;;;;;24.19;40.20;101582.47;4991350;28;20051;-62
2022/05/22 10:25:58;;;;;;;7.85;1.88;;;;;;;23.66;39.54;101575.84;4993059;28;20456;-65
2022/05/22 10:28:32;;;;;;;8.73;2.00;;;;;;;23.98;40.00;101566.91;4993016;28;20047;-64
2022/05/22 10:31:06;;;;;;;9.13;2.00;;;;;;;24.10;39.71;101560.16;4992613;28;20042;-64
2022/05/22 10:33:42;;;;;;;6.80;1.80;;;;;;;24.57;40.06;101565.69;4992821;28;20117;-64
2022/05/22 10:36:14;;;;;;;8.23;2.13;;;;;;;24.27;38.86;101562.81;4992854;28;20050;-63
2022/05/22 10:38:46;;;;;;;6.22;1.73;;;;;;;24.23;39.48;101562.31;4992586;28;20058;-63
2022/05/22 10:44:09;;;;;;;4.33;1.80;;;;;;;24.34;38.59;101557.56;4990771;28;20050;-62
2022/05/22 10:46:48;;;;;;;8.45;2.03;;;;;;;24.41;38.82;101555.88;4991409;28;20046;-63
2022/05/22 10:49:18;;;;;;;5.47;1.60;;;;;;;25.06;41.08;101548.47;4992708;28;20049;-63
2022/05/22 10:51:56;;;;;;;6.00;2.05;;;;;;;24.74;37.88;101553.88;4992458;28;20426;-62
2022/05/22 10:54:29;;;;;;;7.93;2.20;;;;;;;24.77;39.01;101540.09;4989487;28;20058;-63
2022/05/22 10:57:08;;;;;;;6.65;1.65;;;;;;;24.96;39.63;101535.25;4986776;28;20057;-63
2022/05/22 10:59:36;;;;;;;8.25;1.65;;;;;;;25.37;36.72;101532.28;4992238;28;20532;-63
2022/05/22 11:02:14;;;;;;;7.20;2.30;;;;;;;25.30;37.55;101523.22;4992161;28;20050;-62
2022/05/22 11:04:44;;;;;;;7.00;2.03;;;;;;;25.55;38.90;101523.91;4992281;28;20042;-63
2022/05/22 11:07:13;;;;;;;6.78;1.98;;;;;;;25.62;38.11;101516.75;4992382;28;20046;-63
2022/05/22 11:09:48;;;;;;;5.57;1.70;;;;;;;25.76;35.51;101520.47;4992123;28;20133;-63
2022/05/22 11:12:21;;;;;;;6.07;1.70;;;;;;;25.94;37.51;101512.03;4990612;28;20493;-63
2022/05/22 11:14:49;;;;;;;7.50;1.60;;;;;;;26.17;35.01;101505.75;4988298;28;20061;-63
2022/05/22 11:17:19;;;;;;;6.22;1.70;;;;;;;25.86;36.96;101506.72;4989995;28;20054;-62
2022/05/22 11:19:50;;;;;;;8.93;2.42;;;;;;;26.11;35.28;101501.94;4988510;28;20085;-63
2022/05/22 11:22:31;;;;;;;6.70;2.10;;;;;;;26.28;35.85;101502.56;4987409;28;20058;-61
2022/05/22 11:25:17;;;;;;;7.88;2.40;;;;;;;26.44;35.34;101504.22;4991687;28;20057;-60
2022/05/22 11:28:11;;;;;;;7.80;2.22;;;;;;;26.42;35.62;101498.19;4991768;28;20050;-63
2022/05/22 11:30:48;;;;;;;7.75;2.55;;;;;;;26.41;34.51;101483.03;4991842;28;20457;-61
2022/05/22 11:33:33;;;;;;;7.07;2.15;;;;;;;26.74;35.47;101479.06;4988689;28;20150;-61
2022/05/22 11:36:13;;;;;;;5.80;2.45;;;;;;;27.15;34.12;101476.53;4987664;28;20052;-61
2022/05/22 11:38:57;;;;;;;11.73;3.13;;;;;;;26.56;34.41;101464.13;4991684;28;20053;-61
2022/05/22 11:41:29;;;;;;;7.72;2.78;;;;;;;26.73;35.93;101466.59;4992235;28;20046;-65
2022/05/22 11:44:19;;;;;;;;;;;;;;;26.69;35.80;101457.19;4990040;28;20046;-62
2022/05/22 11:47:02;;;;;;;7.88;3.08;;;;;;;26.56;32.79;101458.72;4983446;28;19989;-62
2022/05/22 11:49:39;;;;;;;7.38;2.92;;;;;;;27.14;34.76;101458.66;4991680;28;20053;-64
2022/05/22 11:55:21;;;;;;;9.52;3.88;;;;;;;27.41;31.42;101460.78;4992239;28;20422;-67
2022/05/22 11:58:00;;;;;;;7.63;2.85;;;;;;;27.58;33.09;101454.03;4992087;28;20050;-64
2022/05/22 12:00:36;;;;;;;7.85;2.95;;;;;;;28.08;32.12;101458.47;4995927;28;20042;-62